createdAt,value
2022-12-15T00:03:04.484Z,9.32
2022-12-15T00:07:25.672Z,9.82
2022-12-15T00:11:46.061Z,10.20
2022-12-15T00:16:07.339Z,10.70
2022-12-15T00:20:28.029Z,9.02
2022-12-15T00:24:49.692Z,9.70
2022-12-15T00:29:10.355Z,7.40
2022-12-15T00:33:31.536Z,10.27
2022-12-15T00:37:52.178Z,10.32
2022-12-15T00:41:53.826Z,9.60
2022-12-15T00:46:14.470Z,13.20
2022-12-15T00:50:38.844Z,11.93
2022-12-15T00:54:59.164Z,12.07
2022-12-15T00:59:19.677Z,10.98
2022-12-15T01:03:42.454Z,11.35
2022-12-15T01:08:02.587Z,9.55
2022-12-15T01:12:22.821Z,8.45
2022-12-15T01:16:43.489Z,9.57
2022-12-15T01:20:45.157Z,8.65
2022-12-15T01:24:46.818Z,9.00
2022-12-15T01:28:48.382Z,8.07
2022-12-15T01:32:50.775Z,9.32
2022-12-15T01:36:52.334Z,8.32
2022-12-15T01:40:56.817Z,8.23
2022-12-15T01:45:23.273Z,10.90
2022-12-15T01:49:28.357Z,9.07
2022-12-15T01:53:34.947Z,8.70
2022-12-15T01:57:37.527Z,8.13
2022-12-15T02:01:39.423Z,8.20
2022-12-15T02:05:46.201Z,8.20
2022-12-15T02:09:50.320Z,8.95
2022-12-15T02:14:01.745Z,8.50
2022-12-15T02:18:14.855Z,9.05
2022-12-15T02:22:59.288Z,8.18
2022-12-15T02:27:10.165Z,8.23
2022-12-15T02:31:39.824Z,8.13
2022-12-15T02:35:52.220Z,7.80
2022-12-15T02:39:53.906Z,6.93
2022-12-15T02:43:55.668Z,9.00
2022-12-15T02:48:15.529Z,8.37
2022-12-15T02:52:39.995Z,9.40
2022-12-15T02:56:55.843Z,9.63
2022-12-15T03:01:13.518Z,9.40
2022-12-15T03:05:16.931Z,9.20
2022-12-15T03:09:18.484Z,10.35
2022-12-15T03:13:20.708Z,9.95
2022-12-15T03:17:22.361Z,9.55
2022-12-15T03:21:23.911Z,10.05
2022-12-15T03:25:25.492Z,9.73
2022-12-15T03:29:27.169Z,12.00
2022-12-15T03:33:29.088Z,9.90
2022-12-15T03:37:31.872Z,11.02
2022-12-15T03:41:33.623Z,10.80
2022-12-15T03:45:35.274Z,10.37
2022-12-15T03:49:37.510Z,10.83
2022-12-15T03:53:40.875Z,11.50
2022-12-15T04:01:47.963Z,10.80
2022-12-15T04:05:49.931Z,11.20
2022-12-15T04:09:51.530Z,10.73
2022-12-15T04:13:53.242Z,11.53
2022-12-15T04:17:55.286Z,10.63
2022-12-15T04:21:58.138Z,11.30
2022-12-15T04:26:18.152Z,11.38
2022-12-15T04:30:39.447Z,10.18
2022-12-15T04:34:59.386Z,10.43
2022-12-15T04:39:21.751Z,10.60
2022-12-15T04:43:42.113Z,12.52
2022-12-15T04:48:03.414Z,10.35
2022-12-15T04:52:23.405Z,10.57
2022-12-15T04:56:43.936Z,9.80
2022-12-15T05:01:04.412Z,10.52
2022-12-15T05:05:24.591Z,10.23
2022-12-15T05:09:44.768Z,10.73
2022-12-15T05:14:04.954Z,9.73
2022-12-15T05:18:25.150Z,10.90
2022-12-15T05:22:46.787Z,10.27
2022-12-15T05:27:07.018Z,10.38
2022-12-15T05:31:27.999Z,9.40
2022-12-15T05:35:29.633Z,9.23
2022-12-15T05:39:31.297Z,10.63
2022-12-15T05:43:33.359Z,9.97
2022-12-15T05:47:35.956Z,9.77
2022-12-15T05:51:40.424Z,10.73
2022-12-15T05:55:42.251Z,8.82
2022-12-15T05:59:43.896Z,9.00
2022-12-15T06:03:45.931Z,9.27
2022-12-15T06:07:47.575Z,9.32
2022-12-15T06:11:49.247Z,8.83
2022-12-15T06:16:10.454Z,10.93
2022-12-15T06:20:12.224Z,9.75
2022-12-15T06:24:13.976Z,9.43
2022-12-15T06:28:16.844Z,7.33
2022-12-15T06:32:18.759Z,10.57
2022-12-15T06:36:20.393Z,10.32
2022-12-15T06:40:21.932Z,9.80
2022-12-15T06:44:23.619Z,10.03
2022-12-15T06:48:26.201Z,8.90
2022-12-15T06:52:27.773Z,9.43
2022-12-15T06:56:33.884Z,8.67
2022-12-15T07:00:37.238Z,10.57
2022-12-15T07:04:40.506Z,10.07
2022-12-15T07:08:43.795Z,10.18
2022-12-15T07:12:45.385Z,10.15
2022-12-15T07:16:47.007Z,11.30
2022-12-15T07:20:52.521Z,10.70
2022-12-15T07:24:54.122Z,10.13
2022-12-15T07:28:56.244Z,7.97
2022-12-15T07:32:58.570Z,11.07
2022-12-15T07:37:00.198Z,11.95
2022-12-15T07:41:04.762Z,12.13
2022-12-15T07:45:07.536Z,12.55
2022-12-15T07:49:09.367Z,11.73
2022-12-15T07:53:11.054Z,12.18
2022-12-15T07:57:12.788Z,12.87
2022-12-15T08:01:15.658Z,9.33
2022-12-15T08:05:17.554Z,12.23
2022-12-15T08:09:19.508Z,12.73
2022-12-15T08:13:52.320Z,16.33
2022-12-15T08:17:44.083Z,13.02
2022-12-15T08:21:47.033Z,12.75
2022-12-15T08:25:49.120Z,12.60
2022-12-15T08:29:52.194Z,13.30
2022-12-15T08:33:55.121Z,14.15
2022-12-15T08:38:01.000Z,15.02
2022-12-15T08:42:05.464Z,15.00
2022-12-15T08:46:08.280Z,14.93
2022-12-15T08:50:10.216Z,14.63
2022-12-15T08:54:11.989Z,15.03
2022-12-15T08:58:15.892Z,14.52
2022-12-15T09:02:17.697Z,13.85
2022-12-15T09:06:26.033Z,14.15
2022-12-15T09:10:27.781Z,13.25
2022-12-15T09:14:29.881Z,14.07
2022-12-15T09:18:32.376Z,11.98
2022-12-15T09:22:36.859Z,14.02
2022-12-15T09:26:38.451Z,9.93
2022-12-15T09:30:40.459Z,13.98
2022-12-15T09:34:42.267Z,13.18
2022-12-15T09:38:44.031Z,13.57
2022-12-15T09:43:04.977Z,14.37
2022-12-15T09:47:33.921Z,13.27
2022-12-15T09:51:43.597Z,13.10
2022-12-15T09:55:56.986Z,13.65
2022-12-15T10:00:06.936Z,13.80
2022-12-15T10:04:37.922Z,12.23
2022-12-15T10:08:50.436Z,12.25
2022-12-15T10:13:02.289Z,30.13
2022-12-15T10:17:17.539Z,11.20
2022-12-15T10:21:19.721Z,15.57
2022-12-15T10:25:30.128Z,13.23
2022-12-15T10:29:43.906Z,13.27
2022-12-15T10:33:56.169Z,13.65
2022-12-15T10:37:59.812Z,15.05
2022-12-15T10:42:14.191Z,13.43
2022-12-15T10:46:19.252Z,14.23
2022-12-15T10:50:25.622Z,14.45
2022-12-15T10:54:36.701Z,13.20
2022-12-15T10:58:51.787Z,13.40
2022-12-15T11:02:53.665Z,14.85
2022-12-15T11:07:01.444Z,13.68
2022-12-15T11:11:26.073Z,13.00
2022-12-15T11:15:47.137Z,12.43
2022-12-15T11:20:05.386Z,12.68
2022-12-15T11:24:36.781Z,14.15
2022-12-15T11:33:00.194Z,12.70
2022-12-15T11:37:36.470Z,12.32
2022-12-15T11:41:57.470Z,13.05
2022-12-15T11:46:23.908Z,12.73
2022-12-15T11:50:31.468Z,13.02
2022-12-15T11:54:53.542Z,13.15
2022-12-15T11:59:26.371Z,12.65
2022-12-15T12:03:37.505Z,11.98
2022-12-15T12:07:49.886Z,12.35
2022-12-15T12:12:12.069Z,13.52
2022-12-15T12:16:40.083Z,12.98
2022-12-15T12:20:58.292Z,13.00
2022-12-15T12:25:09.600Z,12.52
2022-12-15T12:29:32.758Z,12.43
2022-12-15T12:33:43.048Z,13.75
2022-12-15T12:38:03.107Z,14.00
2022-12-15T12:42:37.618Z,14.40
2022-12-15T12:46:52.448Z,13.55
2022-12-15T12:51:10.772Z,13.63
2022-12-15T12:55:14.452Z,13.85
2022-12-15T12:59:28.469Z,12.80
2022-12-15T13:03:30.438Z,14.07
2022-12-15T13:07:41.034Z,13.38
2022-12-15T13:11:48.968Z,15.23
2022-12-15T13:16:02.188Z,15.75
2022-12-15T13:24:37.596Z,14.63
2022-12-15T13:28:44.241Z,15.05
2022-12-15T13:32:53.104Z,15.10
2022-12-15T13:36:57.165Z,15.98
2022-12-15T13:40:58.929Z,13.75
2022-12-15T13:45:15.196Z,15.15
2022-12-15T13:49:29.304Z,14.20
2022-12-15T13:53:39.574Z,14.65
2022-12-15T13:57:54.359Z,14.85
2022-12-15T14:01:56.995Z,15.57
2022-12-15T14:10:01.828Z,14.90
2022-12-15T14:14:03.918Z,14.60
2022-12-15T14:18:05.572Z,15.55
2022-12-15T14:22:25.161Z,16.38
2022-12-15T14:26:31.707Z,13.95
2022-12-15T14:30:34.787Z,15.32
2022-12-15T14:34:41.893Z,14.45
2022-12-15T14:38:53.480Z,18.00
2022-12-15T14:42:55.443Z,15.25
2022-12-15T14:46:57.814Z,16.30
2022-12-15T14:51:01.411Z,15.93
2022-12-15T14:55:25.129Z,14.80
2022-12-15T14:59:33.989Z,16.50
2022-12-15T15:03:40.241Z,17.02
2022-12-15T15:07:42.155Z,14.20
2022-12-15T15:11:44.146Z,16.07
2022-12-15T15:15:53.535Z,15.70
2022-12-15T15:20:00.395Z,16.52
2022-12-15T15:24:16.946Z,16.55
2022-12-15T15:28:18.569Z,15.82
2022-12-15T15:32:22.551Z,17.42
2022-12-15T15:36:42.377Z,21.30
2022-12-15T15:40:49.628Z,19.70
2022-12-15T15:44:51.239Z,20.15
2022-12-15T15:49:07.930Z,18.63
2022-12-15T15:53:16.935Z,19.05
2022-12-15T15:57:19.454Z,17.80
2022-12-15T16:05:22.915Z,15.38
2022-12-15T16:09:25.049Z,16.90
2022-12-15T16:13:26.993Z,16.40
2022-12-15T16:17:28.597Z,15.32
2022-12-15T16:21:30.315Z,17.75
2022-12-15T16:25:46.755Z,17.90
2022-12-15T16:29:50.232Z,17.40
2022-12-15T16:33:51.872Z,16.40
2022-12-15T16:37:54.131Z,17.38
2022-12-15T16:41:56.742Z,15.88
2022-12-15T16:45:58.555Z,14.48
2022-12-15T16:50:00.230Z,15.50
2022-12-15T16:54:02.041Z,15.82
2022-12-15T16:58:06.062Z,16.70
2022-12-15T17:02:28.316Z,15.15
2022-12-15T17:06:30.335Z,15.18
2022-12-15T17:10:32.865Z,15.00
2022-12-15T17:14:34.481Z,15.80
2022-12-15T17:18:36.044Z,14.80
2022-12-15T17:22:37.976Z,14.43
2022-12-15T17:26:41.005Z,14.82
2022-12-15T17:30:42.906Z,15.52
2022-12-15T17:34:44.467Z,14.57
2022-12-15T17:38:46.981Z,15.38
2022-12-15T17:42:49.735Z,14.93
2022-12-15T17:46:54.635Z,16.80
2022-12-15T17:50:56.433Z,16.20
2022-12-15T17:54:58.218Z,14.43
2022-12-15T17:58:59.801Z,18.90
2022-12-15T18:03:01.683Z,18.15
2022-12-15T18:07:03.724Z,17.85
2022-12-15T18:11:05.562Z,17.10
2022-12-15T18:15:21.460Z,17.53
2022-12-15T18:19:23.622Z,15.02
2022-12-15T18:23:30.747Z,14.93
2022-12-15T18:27:32.657Z,13.68
2022-12-15T18:31:35.029Z,13.90
2022-12-15T18:35:42.530Z,15.85
2022-12-15T18:39:45.152Z,13.43
2022-12-15T18:47:51.071Z,14.07
2022-12-15T18:51:52.746Z,14.60
2022-12-15T18:55:55.138Z,13.30
2022-12-15T18:59:59.616Z,13.68
2022-12-15T19:04:01.205Z,13.85
2022-12-15T19:08:10.332Z,13.57
2022-12-15T19:12:18.886Z,16.08
2022-12-15T19:16:22.265Z,14.60
2022-12-15T19:20:42.684Z,12.35
2022-12-15T19:24:56.651Z,12.68
2022-12-15T19:28:58.578Z,15.18
2022-12-15T19:33:00.187Z,13.50
2022-12-15T19:37:04.091Z,16.77
2022-12-15T19:41:05.786Z,12.85
2022-12-15T19:45:19.523Z,12.60
2022-12-15T19:49:21.102Z,13.40
2022-12-15T19:53:28.755Z,11.73
2022-12-15T19:57:30.841Z,13.15
2022-12-15T20:01:32.636Z,11.98
2022-12-15T20:05:34.441Z,12.10
2022-12-15T20:09:36.132Z,11.37
2022-12-15T20:13:37.755Z,10.40
2022-12-15T20:17:39.580Z,10.73
2022-12-15T20:21:41.644Z,9.30
2022-12-15T20:25:43.921Z,12.15
2022-12-15T20:29:45.594Z,9.80
2022-12-15T20:33:47.875Z,10.87
2022-12-15T20:37:49.983Z,10.27
2022-12-15T20:41:53.155Z,10.15
2022-12-15T20:46:07.447Z,10.15
2022-12-15T20:50:37.449Z,10.05
2022-12-15T20:54:39.047Z,10.20
2022-12-15T20:58:40.894Z,10.55
2022-12-15T21:02:43.494Z,9.47
2022-12-15T21:10:56.516Z,7.32
2022-12-15T21:14:58.391Z,8.23
2022-12-15T21:19:19.724Z,9.40
2022-12-15T21:27:29.263Z,8.80
2022-12-15T21:31:30.938Z,7.80
2022-12-15T21:35:32.898Z,11.37
2022-12-15T21:39:36.187Z,8.93
2022-12-15T21:43:37.956Z,10.43
2022-12-15T21:47:58.298Z,10.82
2022-12-15T21:52:01.060Z,14.90
2022-12-15T21:56:02.640Z,18.80
2022-12-15T22:00:14.587Z,18.23
2022-12-15T22:04:29.313Z,21.63
2022-12-15T22:08:31.161Z,12.27
2022-12-15T22:12:33.787Z,12.60
2022-12-15T22:16:36.129Z,13.15
2022-12-15T22:20:37.842Z,8.98
2022-12-15T22:24:40.684Z,9.10
2022-12-15T22:28:42.265Z,10.90
2022-12-15T22:32:44.586Z,8.23
2022-12-15T22:36:46.335Z,9.85
2022-12-15T22:40:51.025Z,8.23
2022-12-15T22:44:53.688Z,9.98
2022-12-15T22:48:56.415Z,9.60
2022-12-15T22:52:58.187Z,8.98
2022-12-15T22:57:05.449Z,10.13
2022-12-15T23:01:07.739Z,8.02
2022-12-15T23:05:13.733Z,8.90
2022-12-15T23:09:15.492Z,8.07
2022-12-15T23:13:17.272Z,8.03
2022-12-15T23:17:18.841Z,7.87
2022-12-15T23:21:22.493Z,7.38
2022-12-15T23:25:24.049Z,8.88
2022-12-15T23:29:25.744Z,7.30
2022-12-15T23:33:28.789Z,7.07
2022-12-15T23:37:30.467Z,7.85
2022-12-15T23:41:32.091Z,6.00
2022-12-15T23:45:33.829Z,7.30
2022-12-15T23:49:35.477Z,8.50
2022-12-15T23:53:38.309Z,8.70
2022-12-15T23:57:41.073Z,8.40
